Time;durP1;ratioP1;P1;durP2;ratioP2;P2;SDS_P1;SDS_P2;PMS_P1;PMS_P2;Temp;Humidity;BMP_temperature;BMP_pressure;BME280_temperature;BME280_humidity;BME280_pressure;Samples;Min_cycle;Max_cycle;Signal;HPM_P1;HPM_P2
2021/11/22 00:02:23;;;;;;;38.85;22.60;;;11.40;99.90;;;;;;6181786;23;20024;-77
2021/11/22 00:04:49;;;;;;;32.63;22.35;;;11.40;99.90;;;;;;6180695;23;20005;-77
2021/11/22 00:07:16;;;;;;;27.75;20.50;;;11.40;99.90;;;;;;6180721;23;20006;-78
2021/11/22 00:09:43;;;;;;;36.17;21.42;;;11.40;99.90;;;;;;6180494;23;20055;-77
2021/11/22 00:12:09;;;;;;;32.38;21.10;;;11.40;99.90;;;;;;6182323;23;20062;-77
2021/11/22 00:14:36;;;;;;;35.75;21.55;;;11.40;99.90;;;;;;6183516;23;20498;-77
2021/11/22 00:17:02;;;;;;;34.13;22.00;;;11.40;99.90;;;;;;6182059;23;20005;-77
2021/11/22 00:19:29;;;;;;;33.60;20.92;;;11.50;99.90;;;;;;6182540;23;20424;-77
2021/11/22 00:21:55;;;;;;;29.13;20.17;;;11.50;99.90;;;;;;6182256;23;20016;-77
2021/11/22 00:24:21;;;;;;;30.45;19.88;;;11.40;99.90;;;;;;6183145;23;20001;-77
2021/11/22 00:26:47;;;;;;;36.35;20.40;;;11.40;99.90;;;;;;6180834;23;20096;-77
2021/11/22 00:29:12;;;;;;;28.83;19.02;;;11.50;99.90;;;;;;6183099;23;20043;-77
2021/11/22 00:31:40;;;;;;;29.30;19.40;;;11.40;99.90;;;;;;6182340;23;20071;-77
2021/11/22 00:34:06;;;;;;;31.83;19.63;;;11.50;99.90;;;;;;6183165;23;20008;-77
2021/11/22 00:36:32;;;;;;;28.00;20.27;;;11.50;99.90;;;;;;6182317;23;19997;-77
2021/11/22 00:38:58;;;;;;;30.30;20.33;;;11.50;99.90;;;;;;6183269;23;20001;-77
2021/11/22 00:41:23;;;;;;;31.55;21.20;;;11.50;99.90;;;;;;6182666;23;20001;-77
2021/11/22 00:43:49;;;;;;;36.83;21.20;;;11.50;99.90;;;;;;6183115;23;20005;-77
2021/11/22 00:46:15;;;;;;;33.72;20.58;;;11.50;99.90;;;;;;6180961;23;20005;-77
2021/11/22 00:48:41;;;;;;;30.38;20.23;;;11.50;99.90;;;;;;6182338;23;20417;-77
2021/11/22 00:51:07;;;;;;;28.85;20.35;;;11.50;99.90;;;;;;6182460;23;20413;-75
2021/11/22 00:53:32;;;;;;;31.77;19.83;;;11.50;99.90;;;;;;6181094;23;20040;-75
2021/11/22 00:55:58;;;;;;;29.42;20.20;;;11.50;99.90;;;;;;6181133;23;20016;-75
2021/11/22 00:58:24;;;;;;;27.77;19.33;;;11.50;99.90;;;;;;6181347;23;20582;-76
2021/11/22 01:00:50;;;;;;;31.60;20.83;;;11.50;99.90;;;;;;6182645;23;20063;-77
2021/11/22 01:03:16;;;;;;;25.52;19.55;;;11.50;99.90;;;;;;6182602;23;20396;-75
2021/11/22 01:05:42;;;;;;;27.45;17.05;;;11.60;99.90;;;;;;6184527;23;20340;-75
2021/11/22 01:08:08;;;;;;;23.75;16.95;;;11.60;99.90;;;;;;6182946;23;19997;-77
2021/11/22 01:10:35;;;;;;;25.27;17.35;;;11.60;99.90;;;;;;6184630;23;20025;-77
2021/11/22 01:13:02;;;;;;;25.98;18.63;;;11.60;99.90;;;;;;6184303;23;20140;-77
2021/11/22 01:15:27;;;;;;;23.98;17.65;;;11.60;99.90;;;;;;6182619;23;20032;-77
2021/11/22 01:17:54;;;;;;;22.35;15.82;;;11.60;99.90;;;;;;6183627;23;20001;-76
2021/11/22 01:20:28;;;;;;;25.90;17.67;;;11.70;99.90;;;;;;6182537;23;20487;-76
2021/11/22 01:23:00;;;;;;;29.17;16.90;;;11.70;99.90;;;;;;6183443;23;20028;-77
2021/11/22 01:25:26;;;;;;;22.83;16.52;;;11.70;99.90;;;;;;6184257;23;19997;-77
2021/11/22 01:27:52;;;;;;;25.65;18.00;;;11.70;99.90;;;;;;6183882;23;20044;-77
2021/11/22 01:30:18;;;;;;;22.60;17.10;;;11.80;99.90;;;;;;6184546;23;20054;-75
2021/11/22 01:32:45;;;;;;;28.70;17.00;;;11.70;99.90;;;;;;6183998;23;20016;-76
2021/11/22 01:35:12;;;;;;;21.88;16.17;;;11.70;99.90;;;;;;6184418;23;20001;-77
2021/11/22 01:37:38;;;;;;;21.40;14.65;;;11.70;99.90;;;;;;6183704;23;20005;-76
2021/11/22 01:40:06;;;;;;;24.30;14.98;;;11.70;99.90;;;;;;6184264;23;20007;-77
2021/11/22 01:42:32;;;;;;;21.60;14.90;;;11.80;99.90;;;;;;6183381;23;20002;-76
2021/11/22 01:44:58;;;;;;;19.58;13.70;;;11.70;99.90;;;;;;6184466;23;20383;-77
2021/11/22 01:47:23;;;;;;;23.98;15.38;;;11.70;99.90;;;;;;6182021;23;20008;-76
2021/11/22 01:49:49;;;;;;;20.85;15.15;;;11.80;99.90;;;;;;6184163;23;20012;-77
2021/11/22 01:52:15;;;;;;;22.15;14.80;;;11.70;99.90;;;;;;6183329;23;20356;-74
2021/11/22 01:54:41;;;;;;;22.05;14.98;;;11.70;99.90;;;;;;6182924;23;20428;-77
2021/11/22 01:57:07;;;;;;;17.55;13.23;;;11.80;99.90;;;;;;6183686;23;20009;-76
2021/11/22 01:59:32;;;;;;;18.05;13.32;;;11.80;99.90;;;;;;6184441;23;20324;-76
2021/11/22 02:01:58;;;;;;;21.60;13.93;;;11.80;99.90;;;;;;6183589;23;20424;-78
2021/11/22 02:04:24;;;;;;;18.55;12.68;;;11.80;99.90;;;;;;6182743;23;20005;-77
2021/11/22 02:06:50;;;;;;;18.45;12.65;;;11.90;99.90;;;;;;6181770;23;20001;-77
2021/11/22 02:09:15;;;;;;;17.40;12.50;;;11.90;99.90;;;;;;6184186;23;20001;-78
2021/11/22 02:11:42;;;;;;;19.50;13.32;;;11.90;99.90;;;;;;6183295;23;20013;-78
2021/11/22 02:14:07;;;;;;;17.65;12.57;;;11.90;99.90;;;;;;6184192;23;20447;-77
2021/11/22 02:16:34;;;;;;;15.82;12.60;;;11.90;99.90;;;;;;6183872;23;20001;-77
2021/11/22 02:19:03;;;;;;;16.23;11.70;;;11.90;99.90;;;;;;6184093;23;20080;-77
2021/11/22 02:21:29;;;;;;;15.60;11.05;;;11.90;99.90;;;;;;6183234;23;20437;-77
2021/11/22 02:23:55;;;;;;;17.88;11.85;;;12.00;99.90;;;;;;6182273;23;20005;-78
2021/11/22 02:26:20;;;;;;;15.70;11.15;;;12.00;99.90;;;;;;6183723;23;20001;-77
2021/11/22 02:28:46;;;;;;;16.52;11.75;;;12.00;99.90;;;;;;6183544;23;20088;-77
2021/11/22 02:31:12;;;;;;;13.80;10.57;;;12.00;99.90;;;;;;6181999;23;20017;-77
2021/11/22 02:33:38;;;;;;;15.73;11.48;;;12.00;99.90;;;;;;6183556;23;20027;-77
2021/11/22 02:36:05;;;;;;;14.75;10.80;;;12.00;99.90;;;;;;6182088;23;20001;-77
2021/11/22 02:38:36;;;;;;;14.88;11.48;;;12.00;99.90;;;;;;6183897;23;20004;-77
2021/11/22 02:41:04;;;;;;;19.20;11.90;;;12.00;99.90;;;;;;6182142;23;20013;-77
2021/11/22 02:43:32;;;;;;;18.17;11.82;;;12.00;99.90;;;;;;6182309;23;20008;-77
2021/11/22 02:45:58;;;;;;;15.25;11.13;;;12.00;99.90;;;;;;6183748;23;19997;-77
2021/11/22 02:48:24;;;;;;;16.10;11.77;;;12.10;99.90;;;;;;6181926;23;20005;-77
2021/11/22 02:50:51;;;;;;;18.88;12.27;;;12.10;99.90;;;;;;6183266;23;20001;-77
2021/11/22 02:53:16;;;;;;;16.10;12.05;;;12.10;99.90;;;;;;6183145;23;20047;-77
2021/11/22 02:55:44;;;;;;;14.38;11.80;;;12.20;99.90;;;;;;6182304;23;20001;-76
2021/11/22 02:58:10;;;;;;;16.63;11.93;;;12.10;99.90;;;;;;6181775;23;20391;-76
2021/11/22 03:00:36;;;;;;;17.92;12.20;;;12.20;99.90;;;;;;6183495;23;20040;-75
2021/11/22 03:03:03;;;;;;;16.98;11.82;;;12.20;99.90;;;;;;6181625;23;20016;-76
2021/11/22 03:05:29;;;;;;;17.73;11.65;;;12.20;99.90;;;;;;6183642;23;20392;-76
2021/11/22 03:07:57;;;;;;;17.25;12.57;;;12.20;99.90;;;;;;6183102;23;20005;-76
2021/11/22 03:10:26;;;;;;;19.17;12.18;;;12.20;99.90;;;;;;6183492;23;20080;-76
2021/11/22 03:12:52;;;;;;;18.50;12.73;;;12.20;99.90;;;;;;6181539;23;20069;-76
2021/11/22 03:15:20;;;;;;;17.58;12.32;;;12.20;99.90;;;;;;6183699;23;19989;-76
2021/11/22 03:17:47;;;;;;;20.50;12.07;;;12.20;99.90;;;;;;6183293;23;19997;-76
2021/11/22 03:20:16;;;;;;;21.88;11.80;;;12.20;99.90;;;;;;6183459;23;20024;-75
2021/11/22 03:22:43;;;;;;;16.50;11.93;;;12.20;99.90;;;;;;6182468;23;20324;-76
2021/11/22 03:25:11;;;;;;;18.80;11.48;;;12.20;99.90;;;;;;6183402;23;20001;-76
2021/11/22 03:27:38;;;;;;;17.20;10.40;;;12.20;99.90;;;;;;6182885;23;20005;-76
2021/11/22 03:30:05;;;;;;;17.42;11.07;;;12.20;99.90;;;;;;6183473;23;20001;-76
2021/11/22 03:32:31;;;;;;;17.60;11.05;;;12.20;99.90;;;;;;6182772;23;20013;-76
2021/11/22 03:34:58;;;;;;;16.88;10.55;;;12.20;99.90;;;;;;6183299;23;20008;-75
2021/11/22 03:37:24;;;;;;;18.77;11.30;;;12.20;99.90;;;;;;6180929;23;20615;-75
2021/11/22 03:39:52;;;;;;;15.73;11.13;;;12.20;99.90;;;;;;6183491;23;20028;-76
2021/11/22 03:42:19;;;;;;;15.15;10.80;;;12.20;99.90;;;;;;6181024;23;20013;-76
2021/11/22 03:44:45;;;;;;;18.25;11.63;;;12.30;99.90;;;;;;6183634;23;20001;-76
2021/11/22 03:47:12;;;;;;;17.85;11.75;;;12.30;99.90;;;;;;6182962;23;20012;-76
2021/11/22 03:49:38;;;;;;;13.25;10.23;;;12.30;99.90;;;;;;6183419;23;20075;-76
2021/11/22 03:52:04;;;;;;;20.77;10.68;;;12.40;99.90;;;;;;6182277;23;20009;-76
2021/11/22 03:54:30;;;;;;;15.70;10.25;;;12.40;99.90;;;;;;6183211;23;20336;-76
2021/11/22 03:56:56;;;;;;;14.90;10.00;;;12.40;99.90;;;;;;6181136;23;20009;-76
2021/11/22 03:59:22;;;;;;;17.02;10.75;;;12.40;99.90;;;;;;6183631;23;20077;-76
2021/11/22 04:01:48;;;;;;;15.00;10.32;;;12.40;99.90;;;;;;6181093;23;20036;-75
2021/11/22 04:04:14;;;;;;;14.52;10.30;;;12.30;99.90;;;;;;6183000;23;19997;-75
2021/11/22 04:06:39;;;;;;;15.32;10.50;;;12.30;99.90;;;;;;6182570;23;20001;-76
2021/11/22 04:09:06;;;;;;;17.13;11.80;;;12.30;99.90;;;;;;6183554;23;20017;-75
2021/11/22 04:11:34;;;;;;;17.92;12.63;;;12.30;99.90;;;;;;6182663;23;20321;-75
2021/11/22 04:14:00;;;;;;;19.58;12.80;;;12.40;99.90;;;;;;6183479;23;20005;-76
2021/11/22 04:16:26;;;;;;;17.92;12.52;;;12.40;99.90;;;;;;6182723;23;20001;-75
2021/11/22 04:18:51;;;;;;;21.98;13.90;;;12.40;99.90;;;;;;6183058;23;20032;-75
2021/11/22 04:21:19;;;;;;;22.77;14.32;;;12.40;99.90;;;;;;6182737;23;20033;-75
2021/11/22 04:23:45;;;;;;;19.63;13.93;;;12.30;99.90;;;;;;6182960;23;20072;-75
2021/11/22 04:26:12;;;;;;;18.33;13.57;;;12.30;99.90;;;;;;6182739;23;20008;-75
2021/11/22 04:28:38;;;;;;;19.45;13.13;;;12.30;99.90;;;;;;6182816;23;20024;-76
2021/11/22 04:31:05;;;;;;;22.55;13.73;;;12.30;99.90;;;;;;6182747;23;20055;-75
2021/11/22 04:33:31;;;;;;;21.88;13.40;;;12.20;99.90;;;;;;6181811;23;20008;-75
2021/11/22 04:35:57;;;;;;;21.17;13.95;;;12.30;99.90;;;;;;6183077;23;20360;-75
2021/11/22 04:38:23;;;;;;;21.08;13.15;;;12.30;99.90;;;;;;6183335;23;20013;-75
2021/11/22 04:40:49;;;;;;;19.30;13.35;;;12.30;99.90;;;;;;6184874;23;20037;-75
2021/11/22 04:43:15;;;;;;;23.80;13.95;;;12.20;99.90;;;;;;6184706;23;20421;-76
2021/11/22 04:45:41;;;;;;;23.30;14.15;;;12.20;99.90;;;;;;6185085;23;20005;-76
2021/11/22 04:48:07;;;;;;;19.02;13.27;;;12.20;99.90;;;;;;6182640;23;19997;-75
2021/11/22 04:50:34;;;;;;;19.30;12.05;;;12.20;99.90;;;;;;6184689;23;20008;-75
2021/11/22 04:53:01;;;;;;;18.88;12.65;;;12.30;99.90;;;;;;6184157;23;20047;-75
2021/11/22 04:55:28;;;;;;;18.30;12.57;;;12.30;99.90;;;;;;6184934;23;20071;-76
2021/11/22 04:57:54;;;;;;;18.83;13.57;;;12.30;99.90;;;;;;6182415;23;20005;-75
2021/11/22 05:00:22;;;;;;;18.65;13.10;;;12.30;99.90;;;;;;6184818;23;20005;-75
2021/11/22 05:02:49;;;;;;;20.02;13.68;;;12.30;99.90;;;;;;6184439;23;20444;-75
2021/11/22 05:05:16;;;;;;;20.83;13.32;;;12.30;99.90;;;;;;6184848;23;20005;-75
2021/11/22 05:07:43;;;;;;;25.70;13.88;;;12.30;99.90;;;;;;6184246;23;20000;-75
2021/11/22 05:10:10;;;;;;;20.73;12.93;;;12.30;99.90;;;;;;6183114;23;20653;-75
2021/11/22 05:12:37;;;;;;;18.77;12.80;;;12.30;99.90;;;;;;6184171;23;20453;-75
2021/11/22 05:15:04;;;;;;;21.75;13.30;;;12.30;99.90;;;;;;6184724;23;20078;-75
2021/11/22 05:17:30;;;;;;;20.58;13.27;;;12.20;99.90;;;;;;6184125;23;20008;-75
2021/11/22 05:19:55;;;;;;;23.48;13.35;;;12.20;99.90;;;;;;6183007;23;20001;-75
2021/11/22 05:22:21;;;;;;;23.50;13.15;;;12.20;99.90;;;;;;6183770;23;20008;-75
2021/11/22 05:24:49;;;;;;;24.40;12.82;;;12.20;99.90;;;;;;6183285;23;20005;-75
2021/11/22 05:27:20;;;;;;;19.33;13.07;;;12.20;99.90;;;;;;6183617;23;20012;-75
2021/11/22 05:29:46;;;;;;;19.58;12.55;;;12.20;99.90;;;;;;6184576;23;20449;-75
2021/11/22 05:32:16;;;;;;;17.90;12.40;;;12.20;99.90;;;;;;6182132;23;20063;-75
2021/11/22 05:34:43;;;;;;;22.73;13.18;;;12.20;99.90;;;;;;6184606;23;19997;-75
2021/11/22 05:37:09;;;;;;;20.35;13.18;;;12.20;99.90;;;;;;6183563;23;20432;-75
2021/11/22 05:39:35;;;;;;;18.02;12.48;;;12.20;99.90;;;;;;6183133;23;20008;-75
2021/11/22 05:42:00;;;;;;;19.38;12.82;;;12.20;99.90;;;;;;6183375;23;20075;-75
2021/11/22 05:44:26;;;;;;;18.25;12.55;;;12.20;99.90;;;;;;6184233;23;20072;-75
2021/11/22 05:46:52;;;;;;;18.17;12.23;;;12.20;99.90;;;;;;6183325;23;20001;-74
2021/11/22 05:49:18;;;;;;;18.38;11.65;;;12.20;99.90;;;;;;6182461;23;20484;-74
2021/11/22 05:51:45;;;;;;;19.67;12.77;;;12.10;99.90;;;;;;6181794;23;20017;-75
2021/11/22 05:54:12;;;;;;;20.65;13.15;;;12.10;99.90;;;;;;6184173;23;20005;-74
2021/11/22 05:56:38;;;;;;;15.93;12.15;;;12.00;99.90;;;;;;6183512;23;20080;-75
2021/11/22 05:59:04;;;;;;;17.48;11.52;;;12.00;99.90;;;;;;6184178;23;20367;-76
2021/11/22 06:01:30;;;;;;;18.40;11.75;;;12.00;99.90;;;;;;6183689;23;19997;-74
2021/11/22 06:03:56;;;;;;;18.33;11.30;;;11.90;99.90;;;;;;6183627;23;20008;-74
2021/11/22 06:06:22;;;;;;;15.77;11.25;;;11.90;99.90;;;;;;6182035;23;20032;-76
2021/11/22 06:08:48;;;;;;;16.33;11.20;;;11.90;99.90;;;;;;6181404;23;20031;-75
2021/11/22 06:11:13;;;;;;;16.90;12.63;;;11.90;99.90;;;;;;6178551;23;20005;-75
2021/11/22 06:13:39;;;;;;;16.52;12.15;;;11.90;99.90;;;;;;6179528;23;20500;-75
2021/11/22 06:16:05;;;;;;;16.85;11.27;;;11.80;99.90;;;;;;6180145;23;20465;-75
2021/11/22 06:18:31;;;;;;;19.70;11.98;;;11.80;99.90;;;;;;6178438;23;20088;-75
2021/11/22 06:20:56;;;;;;;17.58;11.90;;;11.80;99.90;;;;;;6180239;23;19997;-75
2021/11/22 06:23:22;;;;;;;17.40;11.40;;;11.80;99.90;;;;;;6181733;23;20005;-75
2021/11/22 06:25:48;;;;;;;19.35;11.63;;;11.80;99.90;;;;;;6183537;23;20001;-76
2021/11/22 06:28:14;;;;;;;14.95;10.88;;;11.80;99.90;;;;;;6183271;23;20387;-77
2021/11/22 06:30:40;;;;;;;16.27;11.07;;;11.90;99.90;;;;;;6183664;23;20013;-77
2021/11/22 06:33:06;;;;;;;21.33;11.60;;;11.90;99.90;;;;;;6182140;23;20302;-78
2021/11/22 06:35:34;;;;;;;15.82;10.48;;;11.90;99.90;;;;;;6183939;23;19997;-76
2021/11/22 06:38:01;;;;;;;13.63;10.63;;;11.90;99.90;;;;;;6183378;23;20005;-75
2021/11/22 06:40:27;;;;;;;18.83;10.88;;;12.00;99.90;;;;;;6183751;23;20005;-76
2021/11/22 06:42:53;;;;;;;15.57;10.57;;;12.00;99.90;;;;;;6183337;23;20032;-76
2021/11/22 06:45:19;;;;;;;17.23;10.95;;;12.00;99.90;;;;;;6183659;23;20023;-75
2021/11/22 06:47:45;;;;;;;17.45;11.10;;;12.00;99.90;;;;;;6183365;23;20008;-76
2021/11/22 06:50:11;;;;;;;20.27;11.07;;;12.10;99.90;;;;;;6183652;23;20128;-75
2021/11/22 06:52:37;;;;;;;14.63;10.77;;;12.10;99.90;;;;;;6183042;23;20437;-75
2021/11/22 06:55:03;;;;;;;18.30;10.82;;;12.10;99.90;;;;;;6183777;23;20048;-75
2021/11/22 06:57:29;;;;;;;19.15;11.15;;;12.10;99.90;;;;;;6182729;23;20012;-76
2021/11/22 06:59:55;;;;;;;16.73;10.05;;;12.20;99.90;;;;;;6183817;23;20001;-76
2021/11/22 07:02:24;;;;;;;14.65;9.95;;;12.20;99.90;;;;;;6182852;23;20008;-77
2021/11/22 07:04:50;;;;;;;17.23;10.88;;;12.30;99.90;;;;;;6183664;23;20136;-75
2021/11/22 07:07:16;;;;;;;13.57;10.23;;;12.30;99.90;;;;;;6182770;23;20009;-76
2021/11/22 07:09:42;;;;;;;13.95;9.80;;;12.30;99.90;;;;;;6183593;23;20010;-75
2021/11/22 07:12:09;;;;;;;13.05;9.98;;;12.40;99.90;;;;;;6182724;23;20009;-77
2021/11/22 07:14:38;;;;;;;14.82;9.80;;;12.50;99.90;;;;;;6183660;23;20370;-76
2021/11/22 07:17:04;;;;;;;17.83;9.82;;;12.50;99.90;;;;;;6182982;23;20310;-76
2021/11/22 07:19:30;;;;;;;14.82;9.75;;;12.60;99.90;;;;;;6183611;23;20004;-76
2021/11/22 07:22:00;;;;;;;18.20;9.40;;;12.60;99.90;;;;;;6182571;23;20004;-75
2021/11/22 07:24:26;;;;;;;13.40;9.48;;;12.70;99.90;;;;;;6183729;23;20009;-75
2021/11/22 07:26:51;;;;;;;15.90;9.27;;;12.70;99.90;;;;;;6183033;23;20309;-76
2021/11/22 07:29:17;;;;;;;14.57;9.18;;;12.80;99.90;;;;;;6183377;23;20095;-75
2021/11/22 07:31:43;;;;;;;13.23;9.65;;;12.80;99.90;;;;;;6181199;23;20075;-75
2021/11/22 07:34:09;;;;;;;14.27;9.63;;;12.90;99.90;;;;;;6183321;23;20001;-76
2021/11/22 07:36:35;;;;;;;15.05;9.93;;;12.90;99.90;;;;;;6182645;23;20005;-75
2021/11/22 07:39:01;;;;;;;13.23;8.98;;;12.90;99.90;;;;;;6183357;23;20401;-75
2021/11/22 07:41:26;;;;;;;13.18;9.15;;;13.00;99.90;;;;;;6182903;23;20040;-76
2021/11/22 07:43:52;;;;;;;13.55;9.48;;;13.00;99.90;;;;;;6183428;23;20439;-75
2021/11/22 07:46:18;;;;;;;20.13;9.15;;;13.10;99.90;;;;;;6183079;23;20005;-75
2021/11/22 07:48:43;;;;;;;12.48;8.73;;;13.20;99.90;;;;;;6183139;23;20356;-76
2021/11/22 07:51:10;;;;;;;14.48;8.85;;;13.20;99.90;;;;;;6182520;23;20492;-77
2021/11/22 07:53:37;;;;;;;15.73;9.52;;;13.30;99.90;;;;;;6183036;23;20491;-76
2021/11/22 07:56:04;;;;;;;18.77;8.93;;;13.30;99.90;;;;;;6178613;23;20028;-77
2021/11/22 07:58:30;;;;;;;15.13;8.85;;;13.40;99.90;;;;;;6180413;23;20021;-77
2021/11/22 08:00:55;;;;;;;12.43;8.88;;;13.50;99.90;;;;;;6180251;23;20008;-76
2021/11/22 08:03:21;;;;;;;14.35;8.65;;;13.60;99.90;;;;;;6180264;23;20681;-76
2021/11/22 08:05:49;;;;;;;18.80;9.15;;;13.60;99.90;;;;;;6178324;23;20001;-75
2021/11/22 08:08:16;;;;;;;11.50;8.48;;;13.70;99.90;;;;;;6180459;23;20020;-75
2021/11/22 08:10:46;;;;;;;12.55;9.00;;;13.70;99.90;;;;;;6182075;23;20447;-76
2021/11/22 08:13:12;;;;;;;13.40;8.73;;;13.80;99.90;;;;;;6180465;23;20043;-75
2021/11/22 08:15:38;;;;;;;9.98;8.00;;;13.80;99.90;;;;;;6182261;23;20001;-77
2021/11/22 08:18:07;;;;;;;12.98;8.20;;;13.90;99.90;;;;;;6181954;23;20388;-76
2021/11/22 08:20:34;;;;;;;13.77;7.88;;;14.00;99.90;;;;;;6181769;23;20344;-77
2021/11/22 08:22:59;;;;;;;10.02;8.13;;;14.10;99.90;;;;;;6181806;23;20101;-76
2021/11/22 08:25:28;;;;;;;12.10;8.10;;;14.20;99.90;;;;;;6180686;23;20028;-75
2021/11/22 08:27:55;;;;;;;12.30;7.93;;;14.20;99.90;;;;;;6181751;23;20021;-77
2021/11/22 08:30:24;;;;;;;11.35;8.13;;;14.30;99.90;;;;;;6182114;23;20038;-77
2021/11/22 08:32:53;;;;;;;10.00;7.70;;;14.30;99.90;;;;;;6181958;23;20095;-77
2021/11/22 08:35:20;;;;;;;13.13;7.97;;;14.40;99.90;;;;;;6180445;23;20006;-77
2021/11/22 08:37:48;;;;;;;14.00;8.05;;;14.50;99.90;;;;;;6181859;23;20005;-77
2021/11/22 08:40:17;;;;;;;16.27;8.38;;;14.60;99.90;;;;;;6182456;23;20483;-77
2021/11/22 08:42:44;;;;;;;10.65;7.80;;;14.60;99.90;;;;;;6180367;23;20376;-77
2021/11/22 08:45:10;;;;;;;12.13;7.57;;;14.80;99.90;;;;;;6180839;23;20012;-77
2021/11/22 08:47:36;;;;;;;13.57;7.80;;;14.80;99.90;;;;;;6180033;23;20005;-77
2021/11/22 08:50:05;;;;;;;19.08;8.40;;;15.00;99.90;;;;;;6182009;23;20016;-78
2021/11/22 08:52:31;;;;;;;11.20;7.47;;;15.10;99.90;;;;;;6181339;23;20004;-77
2021/11/22 08:54:57;;;;;;;10.52;7.25;;;15.20;99.90;;;;;;6182170;23;20047;-78
2021/11/22 08:57:23;;;;;;;13.05;7.57;;;15.30;99.90;;;;;;6181686;23;20008;-77
2021/11/22 08:59:49;;;;;;;11.93;7.53;;;15.30;99.90;;;;;;6182182;23;20328;-78
2021/11/22 09:02:15;;;;;;;12.13;8.02;;;15.40;99.90;;;;;;6181236;23;20367;-77
2021/11/22 09:04:41;;;;;;;13.18;7.80;;;15.50;99.90;;;;;;6182043;23;20016;-79
2021/11/22 09:07:08;;;;;;;10.90;6.80;;;15.50;99.90;;;;;;6181208;23;20005;-77
2021/11/22 09:09:34;;;;;;;11.50;7.40;;;15.70;99.90;;;;;;6182004;23;20056;-77
2021/11/22 09:12:00;;;;;;;11.35;6.82;;;15.70;99.90;;;;;;6181515;23;20028;-77
2021/11/22 09:14:25;;;;;;;13.88;6.82;;;15.80;99.90;;;;;;6181860;23;20364;-77
2021/11/22 09:16:51;;;;;;;13.50;7.15;;;15.80;99.90;;;;;;6181349;23;20005;-77
2021/11/22 09:19:17;;;;;;;13.77;6.57;;;15.80;99.90;;;;;;6180790;23;20009;-77
2021/11/22 09:21:43;;;;;;;14.20;7.57;;;15.90;99.90;;;;;;6178790;23;20175;-77
2021/11/22 09:24:09;;;;;;;11.20;7.07;;;16.00;99.90;;;;;;6181422;23;20016;-77
2021/11/22 09:26:35;;;;;;;9.95;6.70;;;16.00;99.90;;;;;;6180148;23;20005;-77
2021/11/22 09:29:03;;;;;;;8.57;6.55;;;16.10;99.90;;;;;;6179158;23;20017;-78
2021/11/22 09:31:29;;;;;;;10.95;7.00;;;16.20;99.90;;;;;;6180842;23;20083;-77
2021/11/22 09:33:55;;;;;;;8.35;7.07;;;16.20;99.90;;;;;;6184367;23;20429;-78
2021/11/22 09:36:22;;;;;;;15.73;7.32;;;16.20;99.90;;;;;;6183836;23;20000;-78
2021/11/22 09:38:50;;;;;;;8.38;6.85;;;16.30;99.90;;;;;;6184223;23;20032;-78
2021/11/22 09:41:16;;;;;;;11.02;7.10;;;16.40;99.90;;;;;;6184257;23;20009;-79
2021/11/22 09:43:47;;;;;;;15.02;7.43;;;16.60;99.90;;;;;;6182596;23;20009;-77
2021/11/22 09:46:13;;;;;;;11.80;7.00;;;16.70;99.90;;;;;;6183220;23;20008;-76
2021/11/22 09:48:40;;;;;;;11.00;6.88;;;16.90;99.90;;;;;;6181039;23;20100;-78
2021/11/22 09:51:09;;;;;;;8.88;6.55;;;17.00;99.90;;;;;;6182696;23;20473;-77
2021/11/22 09:53:35;;;;;;;8.70;6.25;;;17.10;99.90;;;;;;6183103;23;20036;-78
2021/11/22 09:56:00;;;;;;;9.98;6.38;;;17.20;99.90;;;;;;6182896;23;20001;-75
2021/11/22 09:58:26;;;;;;;10.07;6.30;;;17.30;99.90;;;;;;6183799;23;20008;-79
2021/11/22 10:00:55;;;;;;;7.63;6.38;;;17.30;99.90;;;;;;6181888;23;20512;-78
2021/11/22 10:03:24;;;;;;;10.20;6.35;;;17.40;99.90;;;;;;6181528;23;20159;-78
2021/11/22 10:05:59;;;;;;;6.72;5.68;;;17.40;99.90;;;;;;6181656;23;20309;-78
2021/11/22 10:08:26;;;;;;;8.50;5.53;;;17.40;99.90;;;;;;6110900;23;20022;-78
2021/11/22 10:10:57;;;;;;;9.45;6.25;;;17.40;99.90;;;;;;6121718;23;20002;-79
2021/11/22 10:13:38;;;;;;;10.60;5.82;;;17.30;99.90;;;;;;6120167;23;20315;-77
2021/11/22 10:16:15;;;;;;;9.70;6.00;;;17.20;99.90;;;;;;6123878;23;20017;-78
2021/11/22 10:18:44;;;;;;;11.43;6.43;;;17.10;99.90;;;;;;6122249;23;20009;-77
2021/11/22 10:21:16;;;;;;;11.20;5.90;;;17.10;99.90;;;;;;6123496;23;20528;-78
2021/11/22 10:23:44;;;;;;;8.83;5.93;;;17.20;99.90;;;;;;6123794;23;20002;-77
2021/11/22 10:26:11;;;;;;;8.65;5.93;;;17.20;99.90;;;;;;6123397;23;20245;-77
2021/11/22 10:28:45;;;;;;;12.27;6.95;;;17.20;99.90;;;;;;6121406;23;20010;-78
2021/11/22 10:31:32;;;;;;;7.40;5.63;;;17.20;99.90;;;;;;6122236;23;20441;-77
2021/11/22 10:33:58;;;;;;;11.18;5.93;;;17.00;99.90;;;;;;6123958;23;20460;-78
2021/11/22 10:36:25;;;;;;;8.40;6.45;;;17.00;99.90;;;;;;6123288;23;19998;-78
2021/11/22 10:38:54;;;;;;;12.85;8.00;;;17.00;99.90;;;;;;6124231;23;20006;-78
2021/11/22 10:41:48;;;;;;;19.10;8.93;;;17.00;99.90;;;;;;6123615;23;20092;-78
2021/11/22 10:44:17;;;;;;;10.63;6.47;;;17.00;99.90;;;;;;6119466;23;20009;-78
2021/11/22 10:46:52;;;;;;;11.73;6.82;;;16.90;99.90;;;;;;6123367;23;20345;-77
2021/11/22 10:49:56;;;;;;;8.73;6.95;;;17.00;99.90;;;;;;6123625;23;20002;-77
2021/11/22 10:52:36;;;;;;;10.75;6.22;;;16.90;99.90;;;;;;6122288;23;20729;-78
2021/11/22 10:55:09;;;;;;;9.07;6.45;;;17.00;99.90;;;;;;6123994;23;20089;-78
2021/11/22 10:57:37;;;;;;;8.75;6.15;;;17.00;99.90;;;;;;6123706;23;20030;-77
2021/11/22 11:00:29;;;;;;;10.05;6.72;;;17.10;99.90;;;;;;6123779;23;20101;-78
2021/11/22 11:02:57;;;;;;;9.45;6.60;;;17.00;99.90;;;;;;6119483;23;20006;-78
2021/11/22 11:05:37;;;;;;;9.75;7.40;;;17.00;99.90;;;;;;6123954;23;20049;-79
2021/11/22 11:08:06;;;;;;;18.50;9.02;;;17.10;99.90;;;;;;6122174;23;20006;-77
2021/11/22 11:10:35;;;;;;;10.57;7.00;;;17.20;99.90;;;;;;6123405;23;19998;-77
2021/11/22 11:13:03;;;;;;;11.45;6.95;;;17.30;99.90;;;;;;6123394;23;20457;-77
2021/11/22 11:15:29;;;;;;;9.02;6.70;;;17.40;99.90;;;;;;6123783;23;20017;-78
2021/11/22 11:17:55;;;;;;;10.30;7.18;;;17.30;99.90;;;;;;6123447;23;20006;-78
2021/11/22 11:20:23;;;;;;;13.02;7.90;;;17.30;99.90;;;;;;6123735;23;20069;-78
2021/11/22 11:22:51;;;;;;;11.05;7.68;;;17.30;99.90;;;;;;6123140;23;20001;-78
2021/11/22 11:25:21;;;;;;;12.00;7.65;;;17.40;99.90;;;;;;6123949;23;20006;-77
2021/11/22 11:27:48;;;;;;;9.75;7.25;;;17.20;99.90;;;;;;6123122;23;20018;-77
2021/11/22 11:30:20;;;;;;;14.43;8.02;;;17.10;99.90;;;;;;6108252;23;20094;-78
2021/11/22 11:32:47;;;;;;;13.98;9.35;;;16.90;99.90;;;;;;6117204;23;20013;-78
2021/11/22 11:35:17;;;;;;;16.13;9.30;;;16.70;99.90;;;;;;6122345;23;20046;-78
2021/11/22 11:38:11;;;;;;;18.50;9.25;;;16.70;99.90;;;;;;6121795;23;20307;-78
2021/11/22 11:41:14;;;;;;;13.73;9.98;;;16.80;99.90;;;;;;6097131;23;20330;-78
2021/11/22 11:44:07;;;;;;;17.38;10.95;;;17.00;99.90;;;;;;6123130;23;20006;-78
2021/11/22 11:46:35;;;;;;;20.65;11.93;;;17.00;99.90;;;;;;6122779;23;20338;-78
2021/11/22 11:49:09;;;;;;;20.48;12.05;;;17.10;99.90;;;;;;6123467;23;20013;-78
2021/11/22 11:51:43;;;;;;;22.50;12.52;;;17.20;99.90;;;;;;6096288;23;20006;-78
2021/11/22 11:54:40;;;;;;;22.00;13.23;;;17.30;99.90;;;;;;6123531;23;20053;-79
2021/11/22 11:57:06;;;;;;;20.33;12.63;;;17.40;99.90;;;;;;6121567;23;20009;-77
2021/11/22 11:59:42;;;;;;;21.23;13.35;;;17.30;99.90;;;;;;6123149;23;20018;-79
2021/11/22 12:02:23;;;;;;;15.57;12.35;;;17.20;99.90;;;;;;6122205;23;20085;-78
2021/11/22 12:04:58;;;;;;;19.13;12.90;;;17.10;99.90;;;;;;6122809;23;20002;-77
2021/11/22 12:07:26;;;;;;;20.65;12.93;;;17.10;99.90;;;;;;6121031;23;20093;-77
2021/11/22 12:10:23;;;;;;;16.17;11.80;;;16.90;99.90;;;;;;6123077;23;20017;-77
2021/11/22 12:12:52;;;;;;;18.25;12.18;;;16.40;99.90;;;;;;6120778;23;20021;-77
2021/11/22 12:15:28;;;;;;;19.45;12.27;;;16.10;99.90;;;;;;6122824;23;20338;-76
2021/11/22 12:17:57;;;;;;;18.00;12.38;;;16.10;99.90;;;;;;6095461;23;20016;-80
2021/11/22 12:20:26;;;;;;;20.52;13.45;;;16.30;99.90;;;;;;6122503;23;20002;-76
2021/11/22 12:22:54;;;;;;;15.90;11.57;;;16.10;99.90;;;;;;6122791;23;20421;-79
2021/11/22 12:25:38;;;;;;;20.17;12.18;;;16.00;99.90;;;;;;6123312;23;20010;-79
2021/11/22 12:28:19;;;;;;;16.95;11.13;;;16.10;99.90;;;;;;6103141;23;20438;-78
2021/11/22 12:30:51;;;;;;;19.17;10.70;;;16.10;99.90;;;;;;6122751;23;20014;-78
2021/11/22 12:33:24;;;;;;;17.08;11.77;;;16.00;99.90;;;;;;6122708;23;20105;-78
2021/11/22 12:35:51;;;;;;;14.10;10.82;;;16.00;99.90;;;;;;6121988;23;20002;-80